Terminal Aerodrome Forecast
Issued by NWS

Home | Current Version | Previous Version | Text Only | Print | Product List | Glossary On
Versions: 1 2 3 4 5 6 7 8 9 10 11 12 13 14 15 16
000
FTUS43 KGRR 282300 RRA
TAFAZO
TAF
KAZO 282342Z 2900/2924 15009KT P6SM BKN070
     FM290300 16009KT 6SM -SNPL OVC025
     FM290600 16009KT 6SM -FZDZ OVC030
     FM290900 17009KT 6SM BR OVC035
     FM291500 18011G19KT P6SM OVC025=

USA.gov is the U.S. government's official web portal to all federal, state and local government web resources and services.